sensor_id;sensor_type;location;lat;lon;timestamp;P1;durP1;ratioP1;P2;durP2;ratioP2
52734;SDS011;38631;47.572;10.704;2023-05-24T00:01:14;11.95;;;6.00;;
52734;SDS011;38631;47.572;10.704;2023-05-24T00:03:40;8.63;;;6.50;;
52734;SDS011;38631;47.572;10.704;2023-05-24T00:06:06;10.77;;;6.97;;
52734;SDS011;38631;47.572;10.704;2023-05-24T00:08:32;9.80;;;6.75;;
52734;SDS011;38631;47.572;10.704;2023-05-24T00:10:58;9.82;;;6.10;;
52734;SDS011;38631;47.572;10.704;2023-05-24T00:13:23;10.25;;;6.55;;
52734;SDS011;38631;47.572;10.704;2023-05-24T00:15:49;12.35;;;6.68;;
52734;SDS011;38631;47.572;10.704;2023-05-24T00:18:15;11.32;;;7.13;;
52734;SDS011;38631;47.572;10.704;2023-05-24T00:20:42;10.38;;;6.78;;
52734;SDS011;38631;47.572;10.704;2023-05-24T00:23:07;11.45;;;6.60;;
52734;SDS011;38631;47.572;10.704;2023-05-24T00:25:33;10.07;;;7.00;;
52734;SDS011;38631;47.572;10.704;2023-05-24T00:27:58;9.73;;;7.40;;
52734;SDS011;38631;47.572;10.704;2023-05-24T00:30:24;12.30;;;7.88;;
52734;SDS011;38631;47.572;10.704;2023-05-24T00:32:49;12.20;;;8.18;;
52734;SDS011;38631;47.572;10.704;2023-05-24T00:35:15;10.52;;;7.22;;
52734;SDS011;38631;47.572;10.704;2023-05-24T00:37:40;10.43;;;6.93;;
52734;SDS011;38631;47.572;10.704;2023-05-24T00:40:09;10.10;;;7.32;;
52734;SDS011;38631;47.572;10.704;2023-05-24T00:42:34;9.40;;;6.65;;
52734;SDS011;38631;47.572;10.704;2023-05-24T00:45:00;9.48;;;6.38;;
52734;SDS011;38631;47.572;10.704;2023-05-24T00:47:25;9.60;;;6.20;;
52734;SDS011;38631;47.572;10.704;2023-05-24T00:49:51;12.68;;;6.75;;
52734;SDS011;38631;47.572;10.704;2023-05-24T00:52:16;10.65;;;6.60;;
52734;SDS011;38631;47.572;10.704;2023-05-24T00:54:42;9.57;;;6.53;;
52734;SDS011;38631;47.572;10.704;2023-05-24T00:57:08;8.63;;;6.13;;
52734;SDS011;38631;47.572;10.704;2023-05-24T00:59:33;7.32;;;5.50;;
52734;SDS011;38631;47.572;10.704;2023-05-24T01:01:59;9.07;;;5.95;;
52734;SDS011;38631;47.572;10.704;2023-05-24T01:04:24;7.30;;;5.57;;
52734;SDS011;38631;47.572;10.704;2023-05-24T01:07:05;6.88;;;4.95;;
52734;SDS011;38631;47.572;10.704;2023-05-24T01:09:37;8.77;;;5.30;;
52734;SDS011;38631;47.572;10.704;2023-05-24T01:12:35;8.90;;;6.30;;
52734;SDS011;38631;47.572;10.704;2023-05-24T01:15:23;7.72;;;5.72;;
52734;SDS011;38631;47.572;10.704;2023-05-24T01:17:59;7.13;;;5.30;;
52734;SDS011;38631;47.572;10.704;2023-05-24T01:20:31;6.57;;;5.18;;
52734;SDS011;38631;47.572;10.704;2023-05-24T01:28:10;8.10;;;5.85;;
52734;SDS011;38631;47.572;10.704;2023-05-24T01:30:37;9.38;;;6.82;;
52734;SDS011;38631;47.572;10.704;2023-05-24T01:33:04;8.35;;;6.18;;
52734;SDS011;38631;47.572;10.704;2023-05-24T01:35:30;9.38;;;7.10;;
52734;SDS011;38631;47.572;10.704;2023-05-24T01:37:55;9.40;;;7.30;;
52734;SDS011;38631;47.572;10.704;2023-05-24T01:40:20;9.98;;;7.90;;
52734;SDS011;38631;47.572;10.704;2023-05-24T01:46:09;11.35;;;7.85;;
52734;SDS011;38631;47.572;10.704;2023-05-24T01:56:27;10.55;;;7.25;;
52734;SDS011;38631;47.572;10.704;2023-05-24T01:58:54;11.23;;;7.72;;
52734;SDS011;38631;47.572;10.704;2023-05-24T02:01:22;10.27;;;7.70;;
52734;SDS011;38631;47.572;10.704;2023-05-24T02:03:48;9.38;;;7.68;;
52734;SDS011;38631;47.572;10.704;2023-05-24T02:06:14;10.23;;;7.43;;
52734;SDS011;38631;47.572;10.704;2023-05-24T02:08:40;9.25;;;7.35;;
52734;SDS011;38631;47.572;10.704;2023-05-24T02:11:05;12.20;;;8.00;;
52734;SDS011;38631;47.572;10.704;2023-05-24T02:13:31;9.68;;;7.15;;
52734;SDS011;38631;47.572;10.704;2023-05-24T02:15:56;9.93;;;7.10;;
52734;SDS011;38631;47.572;10.704;2023-05-24T02:18:21;9.07;;;7.00;;
52734;SDS011;38631;47.572;10.704;2023-05-24T02:20:47;10.57;;;8.02;;
52734;SDS011;38631;47.572;10.704;2023-05-24T02:23:12;10.93;;;7.85;;
52734;SDS011;38631;47.572;10.704;2023-05-24T02:25:38;9.95;;;7.65;;
52734;SDS011;38631;47.572;10.704;2023-05-24T02:28:03;10.00;;;7.60;;
52734;SDS011;38631;47.572;10.704;2023-05-24T02:30:29;10.18;;;7.10;;
52734;SDS011;38631;47.572;10.704;2023-05-24T02:32:54;9.70;;;7.97;;
52734;SDS011;38631;47.572;10.704;2023-05-24T02:35:20;11.88;;;7.90;;
52734;SDS011;38631;47.572;10.704;2023-05-24T02:37:46;8.75;;;7.07;;
52734;SDS011;38631;47.572;10.704;2023-05-24T02:40:11;9.18;;;6.88;;
52734;SDS011;38631;47.572;10.704;2023-05-24T02:42:38;10.15;;;7.43;;
52734;SDS011;38631;47.572;10.704;2023-05-24T02:45:03;10.52;;;7.45;;
52734;SDS011;38631;47.572;10.704;2023-05-24T02:47:29;9.23;;;6.93;;
52734;SDS011;38631;47.572;10.704;2023-05-24T02:49:55;8.60;;;6.13;;
52734;SDS011;38631;47.572;10.704;2023-05-24T02:52:20;8.65;;;7.30;;
52734;SDS011;38631;47.572;10.704;2023-05-24T02:54:47;9.73;;;6.97;;
52734;SDS011;38631;47.572;10.704;2023-05-24T02:57:13;9.68;;;7.60;;
52734;SDS011;38631;47.572;10.704;2023-05-24T02:59:39;7.93;;;6.45;;
52734;SDS011;38631;47.572;10.704;2023-05-24T03:02:04;7.50;;;5.88;;
52734;SDS011;38631;47.572;10.704;2023-05-24T03:04:29;9.05;;;6.53;;
52734;SDS011;38631;47.572;10.704;2023-05-24T03:06:55;9.10;;;6.75;;
52734;SDS011;38631;47.572;10.704;2023-05-24T03:09:20;8.40;;;6.20;;
52734;SDS011;38631;47.572;10.704;2023-05-24T03:11:45;9.27;;;6.47;;
52734;SDS011;38631;47.572;10.704;2023-05-24T03:14:11;8.18;;;5.72;;
52734;SDS011;38631;47.572;10.704;2023-05-24T03:16:36;8.57;;;5.60;;
52734;SDS011;38631;47.572;10.704;2023-05-24T03:19:02;7.00;;;5.35;;
52734;SDS011;38631;47.572;10.704;2023-05-24T03:21:28;7.15;;;5.18;;
52734;SDS011;38631;47.572;10.704;2023-05-24T03:23:53;8.05;;;5.65;;
52734;SDS011;38631;47.572;10.704;2023-05-24T03:26:19;7.15;;;5.43;;
52734;SDS011;38631;47.572;10.704;2023-05-24T03:28:45;8.25;;;5.68;;
52734;SDS011;38631;47.572;10.704;2023-05-24T03:31:11;8.10;;;5.57;;
52734;SDS011;38631;47.572;10.704;2023-05-24T03:33:37;8.77;;;5.95;;
52734;SDS011;38631;47.572;10.704;2023-05-24T03:36:03;8.23;;;6.07;;
52734;SDS011;38631;47.572;10.704;2023-05-24T03:38:30;7.15;;;5.55;;
52734;SDS011;38631;47.572;10.704;2023-05-24T03:40:57;8.80;;;6.05;;
52734;SDS011;38631;47.572;10.704;2023-05-24T03:43:23;7.25;;;5.72;;
52734;SDS011;38631;47.572;10.704;2023-05-24T03:45:48;6.18;;;5.10;;
52734;SDS011;38631;47.572;10.704;2023-05-24T03:48:15;6.97;;;5.88;;
52734;SDS011;38631;47.572;10.704;2023-05-24T03:50:40;8.02;;;5.80;;
52734;SDS011;38631;47.572;10.704;2023-05-24T03:53:06;7.18;;;5.82;;
52734;SDS011;38631;47.572;10.704;2023-05-24T03:55:31;10.38;;;6.47;;
52734;SDS011;38631;47.572;10.704;2023-05-24T03:57:57;7.72;;;5.88;;
52734;SDS011;38631;47.572;10.704;2023-05-24T04:00:22;7.63;;;5.40;;
52734;SDS011;38631;47.572;10.704;2023-05-24T04:02:47;6.97;;;5.28;;
52734;SDS011;38631;47.572;10.704;2023-05-24T04:05:13;7.93;;;5.43;;
52734;SDS011;38631;47.572;10.704;2023-05-24T04:07:38;7.32;;;4.90;;
52734;SDS011;38631;47.572;10.704;2023-05-24T04:10:05;9.18;;;5.18;;
52734;SDS011;38631;47.572;10.704;2023-05-24T04:12:31;7.18;;;5.00;;
52734;SDS011;38631;47.572;10.704;2023-05-24T04:15:00;6.55;;;4.90;;
52734;SDS011;38631;47.572;10.704;2023-05-24T04:17:26;6.15;;;4.65;;
52734;SDS011;38631;47.572;10.704;2023-05-24T04:19:53;7.78;;;5.10;;
52734;SDS011;38631;47.572;10.704;2023-05-24T04:22:19;6.18;;;4.70;;
52734;SDS011;38631;47.572;10.704;2023-05-24T04:24:44;7.82;;;5.10;;
52734;SDS011;38631;47.572;10.704;2023-05-24T04:27:10;5.78;;;4.32;;
52734;SDS011;38631;47.572;10.704;2023-05-24T04:29:35;6.53;;;4.60;;
52734;SDS011;38631;47.572;10.704;2023-05-24T04:32:03;7.00;;;5.00;;
52734;SDS011;38631;47.572;10.704;2023-05-24T04:34:30;6.65;;;4.97;;
52734;SDS011;38631;47.572;10.704;2023-05-24T04:36:58;6.55;;;4.25;;
52734;SDS011;38631;47.572;10.704;2023-05-24T04:39:23;6.15;;;4.65;;
52734;SDS011;38631;47.572;10.704;2023-05-24T04:41:49;11.05;;;5.03;;
52734;SDS011;38631;47.572;10.704;2023-05-24T04:44:18;5.45;;;4.13;;
52734;SDS011;38631;47.572;10.704;2023-05-24T04:46:43;5.63;;;4.53;;
52734;SDS011;38631;47.572;10.704;2023-05-24T04:49:09;5.53;;;4.13;;
52734;SDS011;38631;47.572;10.704;2023-05-24T04:51:34;6.78;;;4.60;;
52734;SDS011;38631;47.572;10.704;2023-05-24T04:54:02;6.78;;;4.55;;
52734;SDS011;38631;47.572;10.704;2023-05-24T04:56:32;5.97;;;4.35;;
52734;SDS011;38631;47.572;10.704;2023-05-24T04:59:02;5.55;;;4.13;;
52734;SDS011;38631;47.572;10.704;2023-05-24T05:01:35;4.90;;;4.13;;
52734;SDS011;38631;47.572;10.704;2023-05-24T05:04:01;6.45;;;4.10;;
52734;SDS011;38631;47.572;10.704;2023-05-24T05:06:28;5.45;;;4.15;;
52734;SDS011;38631;47.572;10.704;2023-05-24T05:08:54;5.70;;;4.32;;
52734;SDS011;38631;47.572;10.704;2023-05-24T05:11:19;5.65;;;4.07;;
52734;SDS011;38631;47.572;10.704;2023-05-24T05:13:44;6.07;;;3.88;;
52734;SDS011;38631;47.572;10.704;2023-05-24T05:16:10;5.85;;;4.20;;
52734;SDS011;38631;47.572;10.704;2023-05-24T05:18:36;4.90;;;3.88;;
52734;SDS011;38631;47.572;10.704;2023-05-24T05:21:02;10.60;;;3.90;;
52734;SDS011;38631;47.572;10.704;2023-05-24T05:23:28;5.32;;;3.88;;
52734;SDS011;38631;47.572;10.704;2023-05-24T05:25:54;5.00;;;3.70;;
52734;SDS011;38631;47.572;10.704;2023-05-24T05:28:19;4.78;;;3.65;;
52734;SDS011;38631;47.572;10.704;2023-05-24T05:30:45;7.20;;;4.68;;
52734;SDS011;38631;47.572;10.704;2023-05-24T05:33:10;4.40;;;3.20;;
52734;SDS011;38631;47.572;10.704;2023-05-24T05:35:36;4.43;;;3.20;;
52734;SDS011;38631;47.572;10.704;2023-05-24T05:38:01;5.03;;;3.80;;
52734;SDS011;38631;47.572;10.704;2023-05-24T05:40:27;4.70;;;3.45;;
52734;SDS011;38631;47.572;10.704;2023-05-24T05:42:52;4.10;;;3.30;;
52734;SDS011;38631;47.572;10.704;2023-05-24T05:45:17;6.15;;;3.05;;
52734;SDS011;38631;47.572;10.704;2023-05-24T05:47:43;4.60;;;3.47;;
52734;SDS011;38631;47.572;10.704;2023-05-24T05:50:09;3.97;;;3.20;;
52734;SDS011;38631;47.572;10.704;2023-05-24T05:52:34;5.28;;;3.28;;
52734;SDS011;38631;47.572;10.704;2023-05-24T05:55:00;5.60;;;3.50;;
52734;SDS011;38631;47.572;10.704;2023-05-24T05:57:25;5.05;;;3.70;;
52734;SDS011;38631;47.572;10.704;2023-05-24T05:59:51;4.93;;;3.72;;
52734;SDS011;38631;47.572;10.704;2023-05-24T06:02:16;5.80;;;4.20;;
52734;SDS011;38631;47.572;10.704;2023-05-24T06:04:46;5.47;;;4.18;;
52734;SDS011;38631;47.572;10.704;2023-05-24T06:07:12;6.78;;;4.70;;
52734;SDS011;38631;47.572;10.704;2023-05-24T06:09:37;6.97;;;4.63;;
52734;SDS011;38631;47.572;10.704;2023-05-24T06:12:02;6.90;;;4.80;;
52734;SDS011;38631;47.572;10.704;2023-05-24T06:14:28;6.32;;;4.55;;
52734;SDS011;38631;47.572;10.704;2023-05-24T06:16:54;5.22;;;3.95;;
52734;SDS011;38631;47.572;10.704;2023-05-24T06:19:20;6.90;;;5.03;;
52734;SDS011;38631;47.572;10.704;2023-05-24T06:21:48;7.05;;;5.00;;
52734;SDS011;38631;47.572;10.704;2023-05-24T06:24:14;9.25;;;5.50;;
52734;SDS011;38631;47.572;10.704;2023-05-24T06:26:44;9.68;;;6.07;;
52734;SDS011;38631;47.572;10.704;2023-05-24T06:29:10;10.32;;;6.22;;
52734;SDS011;38631;47.572;10.704;2023-05-24T06:31:35;8.38;;;6.20;;
52734;SDS011;38631;47.572;10.704;2023-05-24T06:34:00;10.13;;;6.18;;
52734;SDS011;38631;47.572;10.704;2023-05-24T06:36:26;7.25;;;4.95;;
52734;SDS011;38631;47.572;10.704;2023-05-24T06:38:51;8.02;;;5.35;;
52734;SDS011;38631;47.572;10.704;2023-05-24T06:41:17;8.25;;;5.43;;
52734;SDS011;38631;47.572;10.704;2023-05-24T06:43:42;7.72;;;5.53;;
52734;SDS011;38631;47.572;10.704;2023-05-24T06:46:08;6.20;;;4.40;;
52734;SDS011;38631;47.572;10.704;2023-05-24T06:48:33;6.88;;;4.57;;
52734;SDS011;38631;47.572;10.704;2023-05-24T06:50:59;7.60;;;4.43;;
52734;SDS011;38631;47.572;10.704;2023-05-24T06:53:24;6.75;;;4.93;;
52734;SDS011;38631;47.572;10.704;2023-05-24T06:55:50;6.78;;;4.88;;
52734;SDS011;38631;47.572;10.704;2023-05-24T06:58:15;7.25;;;4.65;;
52734;SDS011;38631;47.572;10.704;2023-05-24T07:00:41;6.93;;;4.65;;
52734;SDS011;38631;47.572;10.704;2023-05-24T07:03:07;7.80;;;4.85;;
52734;SDS011;38631;47.572;10.704;2023-05-24T07:05:33;7.00;;;5.05;;
52734;SDS011;38631;47.572;10.704;2023-05-24T07:07:59;7.72;;;5.07;;
52734;SDS011;38631;47.572;10.704;2023-05-24T07:10:24;6.60;;;4.97;;
52734;SDS011;38631;47.572;10.704;2023-05-24T07:12:50;7.00;;;5.35;;
52734;SDS011;38631;47.572;10.704;2023-05-24T07:15:16;7.47;;;5.28;;
52734;SDS011;38631;47.572;10.704;2023-05-24T07:17:41;7.68;;;5.07;;
52734;SDS011;38631;47.572;10.704;2023-05-24T07:20:07;7.10;;;5.25;;
52734;SDS011;38631;47.572;10.704;2023-05-24T07:22:37;7.32;;;5.25;;
52734;SDS011;38631;47.572;10.704;2023-05-24T07:25:03;8.38;;;5.40;;
52734;SDS011;38631;47.572;10.704;2023-05-24T07:27:32;8.15;;;6.00;;
52734;SDS011;38631;47.572;10.704;2023-05-24T07:29:57;8.30;;;5.78;;
52734;SDS011;38631;47.572;10.704;2023-05-24T07:32:22;9.05;;;5.93;;
52734;SDS011;38631;47.572;10.704;2023-05-24T07:34:48;9.32;;;5.53;;
52734;SDS011;38631;47.572;10.704;2023-05-24T07:37:14;9.23;;;6.10;;
52734;SDS011;38631;47.572;10.704;2023-05-24T07:39:40;8.55;;;5.68;;
52734;SDS011;38631;47.572;10.704;2023-05-24T07:42:06;9.20;;;6.57;;
52734;SDS011;38631;47.572;10.704;2023-05-24T07:44:31;9.13;;;6.40;;
52734;SDS011;38631;47.572;10.704;2023-05-24T07:46:57;12.02;;;6.88;;
52734;SDS011;38631;47.572;10.704;2023-05-24T07:49:22;8.32;;;5.85;;
52734;SDS011;38631;47.572;10.704;2023-05-24T07:51:48;9.38;;;6.15;;
52734;SDS011;38631;47.572;10.704;2023-05-24T07:54:13;8.25;;;5.22;;
52734;SDS011;38631;47.572;10.704;2023-05-24T07:56:42;8.38;;;5.72;;
52734;SDS011;38631;47.572;10.704;2023-05-24T07:59:08;8.15;;;5.25;;
52734;SDS011;38631;47.572;10.704;2023-05-24T08:01:33;7.93;;;5.22;;
52734;SDS011;38631;47.572;10.704;2023-05-24T08:04:00;9.35;;;5.72;;
52734;SDS011;38631;47.572;10.704;2023-05-24T08:06:27;8.35;;;5.90;;
52734;SDS011;38631;47.572;10.704;2023-05-24T08:08:53;8.82;;;5.28;;
52734;SDS011;38631;47.572;10.704;2023-05-24T08:11:18;7.78;;;5.25;;
52734;SDS011;38631;47.572;10.704;2023-05-24T08:13:44;7.93;;;5.47;;
52734;SDS011;38631;47.572;10.704;2023-05-24T08:16:09;6.95;;;4.60;;
52734;SDS011;38631;47.572;10.704;2023-05-24T08:18:35;5.82;;;4.38;;
52734;SDS011;38631;47.572;10.704;2023-05-24T08:21:00;6.18;;;4.22;;
52734;SDS011;38631;47.572;10.704;2023-05-24T08:23:26;6.50;;;4.22;;
52734;SDS011;38631;47.572;10.704;2023-05-24T08:25:54;6.30;;;4.40;;
52734;SDS011;38631;47.572;10.704;2023-05-24T08:28:20;6.25;;;4.40;;
52734;SDS011;38631;47.572;10.704;2023-05-24T08:30:45;5.75;;;4.20;;
52734;SDS011;38631;47.572;10.704;2023-05-24T08:33:11;8.20;;;4.43;;
52734;SDS011;38631;47.572;10.704;2023-05-24T08:35:36;7.03;;;4.35;;
52734;SDS011;38631;47.572;10.704;2023-05-24T08:38:02;7.75;;;4.72;;
52734;SDS011;38631;47.572;10.704;2023-05-24T08:40:27;7.05;;;4.65;;
52734;SDS011;38631;47.572;10.704;2023-05-24T08:42:52;7.85;;;5.07;;
52734;SDS011;38631;47.572;10.704;2023-05-24T08:45:23;8.13;;;5.47;;
52734;SDS011;38631;47.572;10.704;2023-05-24T08:47:50;6.43;;;4.70;;
52734;SDS011;38631;47.572;10.704;2023-05-24T08:50:16;8.13;;;5.88;;
52734;SDS011;38631;47.572;10.704;2023-05-24T08:52:42;7.03;;;5.03;;
52734;SDS011;38631;47.572;10.704;2023-05-24T08:55:10;8.27;;;5.57;;
52734;SDS011;38631;47.572;10.704;2023-05-24T08:57:35;8.35;;;5.68;;
52734;SDS011;38631;47.572;10.704;2023-05-24T09:00:12;8.10;;;5.00;;
52734;SDS011;38631;47.572;10.704;2023-05-24T09:02:39;7.40;;;5.13;;
52734;SDS011;38631;47.572;10.704;2023-05-24T09:05:08;7.18;;;4.90;;
52734;SDS011;38631;47.572;10.704;2023-05-24T09:07:35;7.68;;;5.45;;
52734;SDS011;38631;47.572;10.704;2023-05-24T09:10:03;7.75;;;5.38;;
52734;SDS011;38631;47.572;10.704;2023-05-24T09:12:31;7.72;;;4.82;;
52734;SDS011;38631;47.572;10.704;2023-05-24T09:14:57;8.18;;;4.80;;
52734;SDS011;38631;47.572;10.704;2023-05-24T09:17:22;7.55;;;4.90;;
52734;SDS011;38631;47.572;10.704;2023-05-24T09:19:49;7.30;;;4.88;;
52734;SDS011;38631;47.572;10.704;2023-05-24T09:22:15;6.85;;;4.85;;
52734;SDS011;38631;47.572;10.704;2023-05-24T09:24:47;7.20;;;5.20;;
52734;SDS011;38631;47.572;10.704;2023-05-24T09:27:14;9.02;;;5.72;;
52734;SDS011;38631;47.572;10.704;2023-05-24T09:29:41;8.65;;;5.75;;
52734;SDS011;38631;47.572;10.704;2023-05-24T09:32:07;8.38;;;5.47;;
52734;SDS011;38631;47.572;10.704;2023-05-24T09:34:37;6.95;;;5.00;;
52734;SDS011;38631;47.572;10.704;2023-05-24T09:37:03;8.93;;;5.63;;
52734;SDS011;38631;47.572;10.704;2023-05-24T09:39:29;9.07;;;5.93;;
52734;SDS011;38631;47.572;10.704;2023-05-24T09:41:56;7.20;;;5.45;;
52734;SDS011;38631;47.572;10.704;2023-05-24T09:44:24;7.60;;;5.20;;
52734;SDS011;38631;47.572;10.704;2023-05-24T09:46:53;8.35;;;5.90;;
52734;SDS011;38631;47.572;10.704;2023-05-24T09:49:28;10.05;;;6.20;;
52734;SDS011;38631;47.572;10.704;2023-05-24T09:51:54;8.05;;;5.50;;
52734;SDS011;38631;47.572;10.704;2023-05-24T09:54:20;7.60;;;4.85;;
52734;SDS011;38631;47.572;10.704;2023-05-24T09:56:45;8.32;;;5.75;;
52734;SDS011;38631;47.572;10.704;2023-05-24T09:59:11;7.95;;;5.40;;
52734;SDS011;38631;47.572;10.704;2023-05-24T10:01:36;7.78;;;5.38;;
52734;SDS011;38631;47.572;10.704;2023-05-24T10:04:02;7.35;;;5.25;;
52734;SDS011;38631;47.572;10.704;2023-05-24T10:06:31;6.88;;;5.32;;
52734;SDS011;38631;47.572;10.704;2023-05-24T10:09:01;9.05;;;5.32;;
52734;SDS011;38631;47.572;10.704;2023-05-24T10:11:33;8.80;;;5.40;;
52734;SDS011;38631;47.572;10.704;2023-05-24T10:14:02;8.63;;;5.97;;
52734;SDS011;38631;47.572;10.704;2023-05-24T10:16:29;8.35;;;5.47;;
52734;SDS011;38631;47.572;10.704;2023-05-24T10:18:55;8.23;;;6.13;;
52734;SDS011;38631;47.572;10.704;2023-05-24T10:21:20;8.93;;;6.07;;
52734;SDS011;38631;47.572;10.704;2023-05-24T10:23:49;8.13;;;5.80;;
52734;SDS011;38631;47.572;10.704;2023-05-24T10:26:18;9.63;;;6.07;;
52734;SDS011;38631;47.572;10.704;2023-05-24T10:28:47;10.43;;;6.03;;
52734;SDS011;38631;47.572;10.704;2023-05-24T10:31:19;8.73;;;6.60;;
52734;SDS011;38631;47.572;10.704;2023-05-24T10:33:50;9.00;;;5.78;;
52734;SDS011;38631;47.572;10.704;2023-05-24T10:36:17;8.63;;;6.05;;
52734;SDS011;38631;47.572;10.704;2023-05-24T10:38:45;7.57;;;5.18;;
52734;SDS011;38631;47.572;10.704;2023-05-24T10:41:11;8.55;;;5.20;;
52734;SDS011;38631;47.572;10.704;2023-05-24T10:43:37;8.90;;;5.82;;
52734;SDS011;38631;47.572;10.704;2023-05-24T10:46:03;8.90;;;5.53;;
52734;SDS011;38631;47.572;10.704;2023-05-24T10:50:55;8.55;;;5.00;;
52734;SDS011;38631;47.572;10.704;2023-05-24T10:53:21;8.68;;;5.60;;
52734;SDS011;38631;47.572;10.704;2023-05-24T10:58:27;8.85;;;5.40;;
52734;SDS011;38631;47.572;10.704;2023-05-24T11:01:27;8.50;;;5.10;;
52734;SDS011;38631;47.572;10.704;2023-05-24T11:04:15;7.70;;;5.25;;
52734;SDS011;38631;47.572;10.704;2023-05-24T11:06:44;9.75;;;5.60;;
52734;SDS011;38631;47.572;10.704;2023-05-24T11:09:14;8.65;;;5.65;;
52734;SDS011;38631;47.572;10.704;2023-05-24T11:11:44;7.65;;;5.00;;
52734;SDS011;38631;47.572;10.704;2023-05-24T11:14:12;8.10;;;4.88;;
52734;SDS011;38631;47.572;10.704;2023-05-24T11:16:38;8.45;;;5.32;;
52734;SDS011;38631;47.572;10.704;2023-05-24T11:19:44;7.38;;;5.15;;
52734;SDS011;38631;47.572;10.704;2023-05-24T11:22:04;7.28;;;4.53;;
52734;SDS011;38631;47.572;10.704;2023-05-24T11:24:31;7.53;;;4.72;;
52734;SDS011;38631;47.572;10.704;2023-05-24T11:26:58;8.82;;;4.78;;
52734;SDS011;38631;47.572;10.704;2023-05-24T11:29:24;6.97;;;4.50;;
52734;SDS011;38631;47.572;10.704;2023-05-24T11:31:53;7.57;;;4.70;;
52734;SDS011;38631;47.572;10.704;2023-05-24T11:34:26;7.38;;;4.57;;
52734;SDS011;38631;47.572;10.704;2023-05-24T11:36:52;8.43;;;5.65;;
52734;SDS011;38631;47.572;10.704;2023-05-24T11:39:19;8.30;;;4.75;;
52734;SDS011;38631;47.572;10.704;2023-05-24T11:41:44;8.60;;;5.45;;
52734;SDS011;38631;47.572;10.704;2023-05-24T11:44:15;7.18;;;5.13;;
52734;SDS011;38631;47.572;10.704;2023-05-24T11:46:43;7.53;;;5.05;;
52734;SDS011;38631;47.572;10.704;2023-05-24T11:49:13;10.07;;;5.45;;
52734;SDS011;38631;47.572;10.704;2023-05-24T11:51:40;8.75;;;4.80;;
52734;SDS011;38631;47.572;10.704;2023-05-24T11:54:06;8.10;;;4.90;;
52734;SDS011;38631;47.572;10.704;2023-05-24T11:56:31;8.82;;;5.18;;
52734;SDS011;38631;47.572;10.704;2023-05-24T12:01:42;9.57;;;5.53;;
52734;SDS011;38631;47.572;10.704;2023-05-24T12:04:08;8.98;;;6.18;;
52734;SDS011;38631;47.572;10.704;2023-05-24T12:06:37;10.82;;;6.35;;
52734;SDS011;38631;47.572;10.704;2023-05-24T12:09:04;9.73;;;6.30;;
52734;SDS011;38631;47.572;10.704;2023-05-24T12:11:41;11.85;;;6.95;;
52734;SDS011;38631;47.572;10.704;2023-05-24T12:14:10;11.57;;;7.43;;
52734;SDS011;38631;47.572;10.704;2023-05-24T12:16:37;11.25;;;7.30;;
52734;SDS011;38631;47.572;10.704;2023-05-24T12:19:02;11.73;;;6.95;;
52734;SDS011;38631;47.572;10.704;2023-05-24T12:21:31;10.95;;;7.07;;
52734;SDS011;38631;47.572;10.704;2023-05-24T12:24:18;9.93;;;6.85;;
52734;SDS011;38631;47.572;10.704;2023-05-24T12:26:46;12.73;;;6.50;;
52734;SDS011;38631;47.572;10.704;2023-05-24T12:29:12;10.68;;;7.10;;
52734;SDS011;38631;47.572;10.704;2023-05-24T12:31:39;11.85;;;7.05;;
52734;SDS011;38631;47.572;10.704;2023-05-24T12:34:11;13.23;;;7.15;;
52734;SDS011;38631;47.572;10.704;2023-05-24T12:36:37;12.35;;;7.68;;
52734;SDS011;38631;47.572;10.704;2023-05-24T12:39:16;13.70;;;7.00;;
52734;SDS011;38631;47.572;10.704;2023-05-24T12:41:49;10.95;;;7.07;;
52734;SDS011;38631;47.572;10.704;2023-05-24T12:44:16;11.48;;;7.78;;
52734;SDS011;38631;47.572;10.704;2023-05-24T12:46:41;11.85;;;7.18;;
52734;SDS011;38631;47.572;10.704;2023-05-24T12:49:06;13.27;;;7.93;;
52734;SDS011;38631;47.572;10.704;2023-05-24T12:51:33;17.58;;;7.35;;
52734;SDS011;38631;47.572;10.704;2023-05-24T12:54:00;12.85;;;7.82;;
52734;SDS011;38631;47.572;10.704;2023-05-24T12:56:28;13.13;;;8.05;;
52734;SDS011;38631;47.572;10.704;2023-05-24T12:58:54;12.38;;;7.63;;
52734;SDS011;38631;47.572;10.704;2023-05-24T13:01:19;11.55;;;7.13;;
52734;SDS011;38631;47.572;10.704;2023-05-24T13:03:47;13.93;;;7.88;;
52734;SDS011;38631;47.572;10.704;2023-05-24T13:06:12;11.98;;;8.18;;
52734;SDS011;38631;47.572;10.704;2023-05-24T13:08:37;11.13;;;7.70;;
52734;SDS011;38631;47.572;10.704;2023-05-24T13:11:03;12.48;;;8.23;;
52734;SDS011;38631;47.572;10.704;2023-05-24T13:13:29;15.15;;;8.45;;
52734;SDS011;38631;47.572;10.704;2023-05-24T13:15:56;12.73;;;8.02;;
52734;SDS011;38631;47.572;10.704;2023-05-24T13:18:21;15.23;;;8.43;;
52734;SDS011;38631;47.572;10.704;2023-05-24T13:20:47;11.15;;;8.13;;
52734;SDS011;38631;47.572;10.704;2023-05-24T13:23:13;14.00;;;8.25;;
52734;SDS011;38631;47.572;10.704;2023-05-24T13:25:38;14.40;;;8.73;;
52734;SDS011;38631;47.572;10.704;2023-05-24T13:28:03;14.38;;;7.78;;
52734;SDS011;38631;47.572;10.704;2023-05-24T13:30:29;14.85;;;8.15;;
52734;SDS011;38631;47.572;10.704;2023-05-24T13:32:54;14.05;;;8.73;;
52734;SDS011;38631;47.572;10.704;2023-05-24T13:35:20;16.98;;;8.80;;
52734;SDS011;38631;47.572;10.704;2023-05-24T13:37:46;12.30;;;8.63;;
52734;SDS011;38631;47.572;10.704;2023-05-24T13:40:12;17.52;;;9.38;;
52734;SDS011;38631;47.572;10.704;2023-05-24T13:42:37;13.88;;;9.80;;
52734;SDS011;38631;47.572;10.704;2023-05-24T13:45:03;13.55;;;9.57;;
52734;SDS011;38631;47.572;10.704;2023-05-24T13:47:29;15.27;;;8.93;;
52734;SDS011;38631;47.572;10.704;2023-05-24T13:49:54;15.25;;;9.23;;
52734;SDS011;38631;47.572;10.704;2023-05-24T13:52:20;15.82;;;9.02;;
52734;SDS011;38631;47.572;10.704;2023-05-24T13:54:46;13.75;;;8.95;;
52734;SDS011;38631;47.572;10.704;2023-05-24T13:57:12;12.40;;;8.82;;
52734;SDS011;38631;47.572;10.704;2023-05-24T13:59:38;16.48;;;9.07;;
52734;SDS011;38631;47.572;10.704;2023-05-24T14:02:03;14.73;;;9.68;;
52734;SDS011;38631;47.572;10.704;2023-05-24T14:04:28;16.63;;;9.32;;
52734;SDS011;38631;47.572;10.704;2023-05-24T14:06:55;14.07;;;8.77;;
52734;SDS011;38631;47.572;10.704;2023-05-24T14:09:21;15.85;;;9.63;;
52734;SDS011;38631;47.572;10.704;2023-05-24T14:11:47;14.13;;;8.93;;
52734;SDS011;38631;47.572;10.704;2023-05-24T14:14:13;17.23;;;9.77;;
52734;SDS011;38631;47.572;10.704;2023-05-24T14:16:38;14.23;;;9.10;;
52734;SDS011;38631;47.572;10.704;2023-05-24T14:19:04;17.95;;;9.70;;
52734;SDS011;38631;47.572;10.704;2023-05-24T14:21:29;15.48;;;9.05;;
52734;SDS011;38631;47.572;10.704;2023-05-24T14:23:55;14.43;;;8.40;;
52734;SDS011;38631;47.572;10.704;2023-05-24T14:26:20;12.35;;;8.73;;
52734;SDS011;38631;47.572;10.704;2023-05-24T14:28:47;13.85;;;8.55;;
52734;SDS011;38631;47.572;10.704;2023-05-24T14:31:12;13.02;;;8.55;;
52734;SDS011;38631;47.572;10.704;2023-05-24T14:33:38;16.42;;;9.25;;
52734;SDS011;38631;47.572;10.704;2023-05-24T14:36:03;18.00;;;10.23;;
52734;SDS011;38631;47.572;10.704;2023-05-24T14:38:29;14.63;;;8.52;;
52734;SDS011;38631;47.572;10.704;2023-05-24T14:40:54;14.40;;;9.13;;
52734;SDS011;38631;47.572;10.704;2023-05-24T14:43:22;14.52;;;9.07;;
52734;SDS011;38631;47.572;10.704;2023-05-24T14:45:47;13.05;;;8.48;;
52734;SDS011;38631;47.572;10.704;2023-05-24T14:48:13;13.23;;;8.05;;
52734;SDS011;38631;47.572;10.704;2023-05-24T14:50:40;12.77;;;8.07;;
52734;SDS011;38631;47.572;10.704;2023-05-24T14:53:05;15.50;;;8.38;;